Time;durP1;ratioP1;P1;durP2;ratioP2;P2;SDS_P1;SDS_P2;PMS_P1;PMS_P2;Temp;Humidity;BMP_temperature;BMP_pressure;BME280_temperature;BME280_humidity;BME280_pressure;Samples;Min_cycle;Max_cycle;Signal;HPM_P1;HPM_P2
2022/03/29 00:01:05;;;;;;;35.22;24.15;;;8.70;99.90;;;;;;5133071;28;20285;-83
2022/03/29 00:03:32;;;;;;;44.25;24.77;;;8.70;99.90;;;;;;5134603;28;20240;-82
2022/03/29 00:05:59;;;;;;;35.92;26.00;;;8.70;99.90;;;;;;5141954;27;20225;-82
2022/03/29 00:08:26;;;;;;;41.15;25.23;;;8.70;99.90;;;;;;5128012;28;20265;-82
2022/03/29 00:10:54;;;;;;;47.67;27.50;;;8.80;99.90;;;;;;5133418;27;20203;-82
2022/03/29 00:13:21;;;;;;;37.22;26.20;;;8.80;99.90;;;;;;5132392;28;20264;-82
2022/03/29 00:15:48;;;;;;;44.75;28.10;;;8.90;99.90;;;;;;5133593;28;20723;-83
2022/03/29 00:18:15;;;;;;;46.38;28.13;;;8.80;99.90;;;;;;5133874;28;20287;-82
2022/03/29 00:20:42;;;;;;;40.08;26.25;;;8.80;99.90;;;;;;5132182;28;20295;-81
2022/03/29 00:23:09;;;;;;;31.83;21.52;;;8.70;99.90;;;;;;5131115;28;20318;-82
2022/03/29 00:25:36;;;;;;;35.03;22.40;;;8.70;99.90;;;;;;5131171;28;20212;-82
2022/03/29 00:28:05;;;;;;;31.75;23.38;;;8.70;99.90;;;;;;5137507;28;20256;-82
2022/03/29 00:30:32;;;;;;;32.83;21.58;;;8.70;99.90;;;;;;5133879;28;20762;-82
2022/03/29 00:32:59;;;;;;;31.88;22.00;;;8.70;99.90;;;;;;5128379;28;20206;-81
2022/03/29 00:35:26;;;;;;;35.05;22.90;;;8.70;99.90;;;;;;5136934;27;20220;-80
2022/03/29 00:37:54;;;;;;;39.95;21.65;;;8.70;99.90;;;;;;5124005;27;20281;-82
2022/03/29 00:40:21;;;;;;;33.92;23.52;;;8.70;99.90;;;;;;5137668;27;20241;-82
2022/03/29 00:42:48;;;;;;;30.10;21.95;;;8.70;99.90;;;;;;5130838;28;20267;-82
2022/03/29 00:45:16;;;;;;;36.55;23.25;;;8.60;99.90;;;;;;5135970;28;20201;-82
2022/03/29 00:47:43;;;;;;;31.63;20.00;;;8.60;99.90;;;;;;5139805;28;20247;-81
2022/03/29 00:50:11;;;;;;;32.70;21.17;;;8.50;99.90;;;;;;5139132;28;20211;-81
2022/03/29 00:52:39;;;;;;;32.10;22.85;;;8.50;99.90;;;;;;5143522;27;20197;-82
2022/03/29 00:55:07;;;;;;;35.15;22.27;;;8.60;99.90;;;;;;5135414;28;20240;-82
2022/03/29 00:57:35;;;;;;;31.45;22.85;;;8.50;99.90;;;;;;5142373;27;20208;-82
2022/03/29 01:00:03;;;;;;;30.38;21.15;;;8.50;99.90;;;;;;5134207;27;20233;-82
2022/03/29 01:02:31;;;;;;;32.78;21.73;;;8.50;99.90;;;;;;5124958;28;20212;-83
2022/03/29 01:04:58;;;;;;;31.65;21.30;;;8.50;99.90;;;;;;5127996;27;20287;-84
2022/03/29 01:07:27;;;;;;;47.40;23.77;;;8.50;99.90;;;;;;5128579;28;20200;-81
2022/03/29 01:09:55;;;;;;;42.10;22.55;;;8.30;99.90;;;;;;5133506;27;20220;-82
2022/03/29 01:12:24;;;;;;;31.17;22.50;;;8.30;99.90;;;;;;5140943;27;20184;-81
2022/03/29 01:14:52;;;;;;;30.20;21.30;;;8.30;99.90;;;;;;5123168;27;20237;-81
2022/03/29 01:20:12;;;;;;;31.70;22.13;;;8.30;99.90;;;;;;5137616;27;20195;-81
2022/03/29 01:22:43;;;;;;;32.13;22.60;;;8.30;99.90;;;;;;5126062;27;20230;-84
2022/03/29 01:25:13;;;;;;;35.45;21.20;;;8.30;99.90;;;;;;5123142;27;20212;-83
2022/03/29 01:27:42;;;;;;;31.13;22.88;;;8.40;99.90;;;;;;5140619;27;20252;-82
2022/03/29 01:30:09;;;;;;;38.85;24.33;;;8.40;99.90;;;;;;5132278;27;20194;-83
2022/03/29 01:32:40;;;;;;;35.25;20.30;;;8.40;99.90;;;;;;5121513;28;20189;-82
2022/03/29 01:35:08;;;;;;;32.10;20.92;;;8.40;99.90;;;;;;5130612;27;20229;-81
2022/03/29 01:37:35;;;;;;;29.00;21.52;;;8.40;99.90;;;;;;5141308;27;20224;-81
2022/03/29 01:40:08;;;;;;;34.05;21.88;;;8.40;99.90;;;;;;5140499;27;20178;-80
2022/03/29 01:42:37;;;;;;;29.08;20.23;;;8.40;99.90;;;;;;5157025;27;20316;-83
2022/03/29 01:45:05;;;;;;;35.25;21.80;;;8.40;99.90;;;;;;5161950;27;20176;-82
2022/03/29 01:47:32;;;;;;;31.27;20.55;;;8.40;99.90;;;;;;5141153;27;20192;-81
2022/03/29 01:49:59;;;;;;;30.58;19.25;;;8.40;99.90;;;;;;5151680;27;20197;-81
2022/03/29 01:52:26;;;;;;;30.75;21.67;;;8.40;99.90;;;;;;5161301;27;20215;-80
2022/03/29 01:54:53;;;;;;;27.45;19.10;;;8.50;99.90;;;;;;5151176;27;20204;-82
2022/03/29 01:57:28;;;;;;;36.35;22.67;;;8.50;99.90;;;;;;5140338;27;20189;-81
2022/03/29 02:02:39;;;;;;;31.83;22.00;;;8.50;99.90;;;;;;5148700;27;20207;-81
2022/03/29 02:05:06;;;;;;;32.22;21.73;;;8.50;99.90;;;;;;5140900;27;20189;-83
2022/03/29 02:07:34;;;;;;;29.85;21.05;;;8.40;99.90;;;;;;5138742;27;20201;-82
2022/03/29 02:10:01;;;;;;;35.72;21.35;;;8.40;99.90;;;;;;5134065;27;20185;-80
2022/03/29 02:12:30;;;;;;;36.95;22.00;;;8.40;99.90;;;;;;5133592;27;20219;-83
2022/03/29 02:14:57;;;;;;;33.13;22.60;;;8.40;99.90;;;;;;5124869;28;20200;-83
2022/03/29 02:17:24;;;;;;;32.13;20.98;;;8.40;99.90;;;;;;5151987;27;20293;-82
2022/03/29 02:19:51;;;;;;;32.40;22.25;;;8.40;99.90;;;;;;5132428;27;20185;-81
2022/03/29 02:22:17;;;;;;;31.23;22.55;;;8.40;99.90;;;;;;5137754;27;20208;-82
2022/03/29 02:24:44;;;;;;;36.85;25.55;;;8.30;99.90;;;;;;5144127;27;20281;-82
2022/03/29 02:27:11;;;;;;;29.17;21.02;;;8.30;99.90;;;;;;5141457;27;20200;-82
2022/03/29 02:29:39;;;;;;;34.38;23.58;;;8.30;99.90;;;;;;5132631;27;20240;-81
2022/03/29 02:32:08;;;;;;;40.50;23.10;;;8.20;99.90;;;;;;5131594;28;20203;-83
2022/03/29 02:34:35;;;;;;;33.40;21.10;;;8.30;99.90;;;;;;5138314;27;20253;-82
2022/03/29 02:37:02;;;;;;;32.97;24.27;;;8.30;99.90;;;;;;5125732;27;20205;-83
2022/03/29 02:39:29;;;;;;;42.25;25.67;;;8.20;99.90;;;;;;5132097;27;20228;-82
2022/03/29 02:41:56;;;;;;;40.42;23.67;;;8.20;99.90;;;;;;5134511;27;20221;-82
2022/03/29 02:44:23;;;;;;;35.00;22.80;;;8.20;99.90;;;;;;5133357;28;20204;-81
2022/03/29 02:46:51;;;;;;;50.00;25.08;;;8.30;99.90;;;;;;5137450;27;20236;-81
2022/03/29 02:49:18;;;;;;;33.00;22.83;;;8.20;99.90;;;;;;5132927;27;20212;-82
2022/03/29 02:51:45;;;;;;;35.13;23.02;;;8.30;99.90;;;;;;5120964;27;20459;-82
2022/03/29 02:54:14;;;;;;;36.88;24.08;;;8.20;99.90;;;;;;5136723;27;20219;-82
2022/03/29 02:56:41;;;;;;;32.63;23.17;;;8.30;99.90;;;;;;5136698;27;20275;-83
2022/03/29 02:59:08;;;;;;;36.45;23.48;;;8.20;99.90;;;;;;5138988;27;20219;-82
2022/03/29 03:01:35;;;;;;;35.10;24.80;;;8.20;99.90;;;;;;5151554;27;20204;-81
2022/03/29 03:04:03;;;;;;;33.05;22.08;;;8.20;99.90;;;;;;5140444;27;20238;-81
2022/03/29 03:06:32;;;;;;;37.92;23.85;;;8.20;99.90;;;;;;5137107;27;20231;-82
2022/03/29 03:08:59;;;;;;;38.35;22.70;;;8.20;99.90;;;;;;5135266;28;20229;-81
2022/03/29 03:11:25;;;;;;;38.30;25.73;;;8.30;99.90;;;;;;5138185;27;20197;-81
2022/03/29 03:13:52;;;;;;;40.45;24.60;;;8.40;99.90;;;;;;5135537;27;20192;-81
2022/03/29 03:16:19;;;;;;;34.33;23.33;;;8.30;99.90;;;;;;5123986;27;20188;-82
2022/03/29 03:18:46;;;;;;;37.20;25.33;;;8.30;99.90;;;;;;5117778;27;20227;-80
2022/03/29 03:21:14;;;;;;;40.63;23.65;;;8.30;99.90;;;;;;5127208;28;20224;-82
2022/03/29 03:23:41;;;;;;;38.78;24.90;;;8.30;99.90;;;;;;5130056;27;20242;-82
2022/03/29 03:26:08;;;;;;;33.28;22.63;;;8.30;99.90;;;;;;5121711;27;20243;-82
2022/03/29 03:28:35;;;;;;;32.25;22.67;;;8.30;99.90;;;;;;5124895;28;20256;-82
2022/03/29 03:31:02;;;;;;;36.97;22.92;;;8.30;99.90;;;;;;5134510;27;20204;-82
2022/03/29 03:33:29;;;;;;;38.53;23.17;;;8.30;99.90;;;;;;5121349;27;20227;-82
2022/03/29 03:35:56;;;;;;;30.67;22.85;;;8.30;99.90;;;;;;5123437;28;20205;-82
2022/03/29 03:38:24;;;;;;;35.38;23.35;;;8.30;99.90;;;;;;5124616;28;20217;-82
2022/03/29 03:40:51;;;;;;;43.63;23.83;;;8.30;99.90;;;;;;5118942;27;20224;-82
2022/03/29 03:43:18;;;;;;;34.72;22.65;;;8.30;99.90;;;;;;5140842;28;20227;-82
2022/03/29 03:45:45;;;;;;;52.97;23.05;;;8.30;99.90;;;;;;5131073;27;20212;-82
2022/03/29 03:48:12;;;;;;;38.22;24.35;;;8.30;99.90;;;;;;5132894;28;20296;-82
2022/03/29 03:50:39;;;;;;;37.63;25.52;;;8.30;99.90;;;;;;5139497;27;20251;-82
2022/03/29 03:53:06;;;;;;;35.53;20.50;;;8.30;99.90;;;;;;5121482;28;20272;-83
2022/03/29 03:55:34;;;;;;;35.65;22.92;;;8.40;99.90;;;;;;5143822;28;20235;-81
2022/03/29 03:58:02;;;;;;;36.03;22.75;;;8.40;99.90;;;;;;5131220;27;20213;-81
2022/03/29 04:00:29;;;;;;;36.65;24.25;;;8.40;99.90;;;;;;5123860;27;20217;-83
2022/03/29 04:02:57;;;;;;;48.03;23.83;;;8.40;99.90;;;;;;5124282;28;20221;-81
2022/03/29 04:05:26;;;;;;;35.47;23.27;;;8.40;99.90;;;;;;5137607;27;20204;-81
2022/03/29 04:54:21;;;;;;;38.40;23.23;;;8.30;99.90;;;;;;4919753;29;20186;-87
2022/03/29 06:19:00;;;;;;;31.95;22.27;;;8.70;99.90;;;;;;4858264;29;20879;-90
2022/03/29 06:24:33;;;;;;;31.40;20.63;;;8.80;99.90;;;;;;4976653;28;20213;-84
2022/03/29 06:27:00;;;;;;;31.42;21.70;;;8.80;99.90;;;;;;5052086;28;20291;-88
2022/03/29 06:29:27;;;;;;;42.85;24.05;;;8.90;99.90;;;;;;5070309;28;20262;-86
2022/03/29 06:31:54;;;;;;;39.15;23.98;;;8.90;99.90;;;;;;5066572;28;20206;-86
2022/03/29 06:34:23;;;;;;;39.92;23.88;;;8.90;99.90;;;;;;5061859;28;20210;-84
2022/03/29 06:36:50;;;;;;;34.17;22.08;;;9.00;99.90;;;;;;5053798;28;20204;-84
2022/03/29 06:39:17;;;;;;;32.50;20.13;;;9.00;99.90;;;;;;5057589;28;20290;-85
2022/03/29 06:41:43;;;;;;;34.45;21.42;;;9.00;99.90;;;;;;5062790;28;20243;-82
2022/03/29 06:44:10;;;;;;;32.63;20.23;;;9.00;99.90;;;;;;5055762;28;20211;-83
2022/03/29 06:46:39;;;;;;;38.63;23.50;;;9.00;99.90;;;;;;5065783;28;20292;-85
2022/03/29 06:49:07;;;;;;;40.80;22.70;;;9.00;99.90;;;;;;5047897;28;20650;-83
2022/03/29 06:51:36;;;;;;;34.35;19.48;;;9.00;99.90;;;;;;5057062;28;20214;-83
2022/03/29 06:54:04;;;;;;;34.08;19.52;;;9.00;99.90;;;;;;5061458;28;20182;-83
2022/03/29 06:56:31;;;;;;;41.33;20.63;;;9.00;99.90;;;;;;5069269;28;20225;-83
2022/03/29 06:59:00;;;;;;;33.80;22.80;;;9.00;99.90;;;;;;5071630;28;20208;-84
2022/03/29 07:01:27;;;;;;;35.40;22.00;;;9.20;99.90;;;;;;5071306;28;20286;-84
2022/03/29 07:03:57;;;;;;;38.13;22.17;;;9.30;99.90;;;;;;5063710;28;20227;-84
2022/03/29 07:06:43;;;;;;;28.98;20.30;;;9.40;99.90;;;;;;5061617;28;20207;-86
2022/03/29 07:11:54;;;;;;;33.22;20.55;;;9.50;99.90;;;;;;5064109;28;20722;-85
2022/03/29 07:14:31;;;;;;;39.88;22.45;;;9.50;99.90;;;;;;5056698;28;20206;-84
2022/03/29 07:16:59;;;;;;;32.17;21.27;;;9.60;99.90;;;;;;5052722;28;20198;-86
2022/03/29 07:19:27;;;;;;;42.22;21.45;;;9.50;99.90;;;;;;5053900;28;20733;-83
2022/03/29 07:21:56;;;;;;;32.35;19.45;;;9.50;99.90;;;;;;5062607;28;20235;-86
2022/03/29 07:24:23;;;;;;;36.22;20.90;;;9.60;99.90;;;;;;5052862;28;20215;-85
2022/03/29 07:26:50;;;;;;;31.23;15.95;;;9.70;99.90;;;;;;5064616;28;20231;-85
2022/03/29 07:29:17;;;;;;;32.50;16.52;;;9.80;99.90;;;;;;5060652;28;20262;-85
2022/03/29 07:31:45;;;;;;;26.85;15.63;;;9.90;99.90;;;;;;5058285;28;20210;-85
2022/03/29 07:34:12;;;;;;;32.60;17.77;;;9.80;99.90;;;;;;5072158;28;20203;-84
2022/03/29 07:36:39;;;;;;;33.42;17.15;;;9.70;99.90;;;;;;5067974;28;20196;-85
2022/03/29 07:39:07;;;;;;;36.17;20.35;;;9.60;99.90;;;;;;5059179;28;20623;-85
2022/03/29 07:41:34;;;;;;;32.47;16.20;;;9.80;99.90;;;;;;5062000;28;20231;-85
2022/03/29 07:44:02;;;;;;;30.50;16.65;;;9.80;99.90;;;;;;5057912;28;20254;-87
2022/03/29 07:46:29;;;;;;;32.50;17.83;;;9.90;99.90;;;;;;5056471;28;20715;-85
2022/03/29 07:48:56;;;;;;;33.30;16.73;;;10.00;99.90;;;;;;5068575;28;20214;-85
2022/03/29 07:51:23;;;;;;;28.55;14.10;;;9.90;99.90;;;;;;5051834;28;20235;-85
2022/03/29 07:53:51;;;;;;;28.27;14.48;;;9.90;99.90;;;;;;5054029;28;20219;-84
2022/03/29 07:56:19;;;;;;;28.63;16.13;;;9.80;99.90;;;;;;5064167;28;20679;-84
2022/03/29 07:58:46;;;;;;;25.50;14.63;;;9.80;99.90;;;;;;5056927;28;20306;-86
2022/03/29 08:01:13;;;;;;;26.90;13.50;;;9.80;99.90;;;;;;5051296;28;20539;-84
2022/03/29 08:03:42;;;;;;;22.67;14.52;;;10.00;99.90;;;;;;5062286;28;20224;-85
2022/03/29 08:06:09;;;;;;;18.42;13.38;;;10.10;99.90;;;;;;5059560;28;20212;-84
2022/03/29 08:08:36;;;;;;;26.13;15.45;;;10.10;99.90;;;;;;5060835;28;20207;-85
2022/03/29 08:11:04;;;;;;;28.88;14.65;;;10.10;99.90;;;;;;5075999;28;20255;-84
2022/03/29 08:13:33;;;;;;;25.25;14.13;;;10.20;99.90;;;;;;5076287;28;20182;-84
2022/03/29 08:16:01;;;;;;;25.55;13.13;;;10.30;99.90;;;;;;5073792;28;20210;-83
2022/03/29 08:18:28;;;;;;;19.90;14.10;;;10.30;99.90;;;;;;5059730;28;20287;-83
2022/03/29 08:20:56;;;;;;;31.63;13.70;;;10.30;99.90;;;;;;5076654;28;20192;-82
2022/03/29 08:23:24;;;;;;;18.90;12.65;;;10.30;99.90;;;;;;5062486;28;20232;-82
2022/03/29 08:25:51;;;;;;;19.25;9.65;;;10.20;99.90;;;;;;5072523;28;20176;-82
2022/03/29 08:28:19;;;;;;;24.63;7.93;;;10.40;99.90;;;;;;5068867;28;20275;-82
2022/03/29 08:30:48;;;;;;;22.40;8.80;;;10.50;99.90;;;;;;5075075;28;20399;-82
2022/03/29 08:33:24;;;;;;;15.55;9.70;;;10.60;99.90;;;;;;5058375;28;20268;-83
2022/03/29 08:35:51;;;;;;;21.10;9.68;;;10.60;99.90;;;;;;5060761;28;20192;-84
2022/03/29 08:38:18;;;;;;;20.63;11.98;;;10.90;99.90;;;;;;5061374;28;20247;-82
2022/03/29 08:40:46;;;;;;;16.42;11.57;;;11.10;99.90;;;;;;5064852;28;20258;-85
2022/03/29 08:43:15;;;;;;;18.85;10.40;;;12.30;99.90;;;;;;5067925;28;20227;-86
2022/03/29 08:45:49;;;;;;;17.90;8.30;;;13.80;98.50;;;;;;5058339;28;20645;-85
2022/03/29 08:48:16;;;;;;;21.40;9.48;;;14.80;96.00;;;;;;5071106;28;20227;-85
2022/03/29 08:50:43;;;;;;;12.10;8.35;;;16.20;91.50;;;;;;5069511;28;20318;-86
2022/03/29 08:53:12;;;;;;;22.08;11.35;;;16.50;89.50;;;;;;5063275;28;20269;-85
2022/03/29 08:55:42;;;;;;;34.88;20.85;;;16.60;87.70;;;;;;5059098;28;20242;-86
2022/03/29 08:58:09;;;;;;;19.70;9.45;;;16.40;86.80;;;;;;5057564;28;20234;-84
2022/03/29 09:00:36;;;;;;;18.42;10.15;;;15.40;88.50;;;;;;5060835;28;20208;-85
2022/03/29 09:03:05;;;;;;;20.80;9.10;;;14.60;91.10;;;;;;5074629;28;20294;-87
2022/03/29 09:05:32;;;;;;;16.02;9.57;;;14.10;91.90;;;;;;5062936;28;20199;-86
2022/03/29 09:08:03;;;;;;;18.13;10.70;;;13.80;92.50;;;;;;5066638;28;20219;-85
2022/03/29 09:10:41;;;;;;;20.30;9.75;;;13.40;95.60;;;;;;5061881;28;20216;-85
2022/03/29 09:13:20;;;;;;;21.27;10.20;;;13.40;97.40;;;;;;5064566;28;20215;-84
2022/03/29 09:15:48;;;;;;;19.55;10.63;;;13.00;96.30;;;;;;5064083;28;20241;-87
2022/03/29 09:18:16;;;;;;;18.02;7.80;;;12.90;96.80;;;;;;5054184;28;20205;-85
2022/03/29 09:20:45;;;;;;;21.27;7.40;;;12.60;97.70;;;;;;5067368;28;20214;-87
2022/03/29 09:23:17;;;;;;;17.40;8.80;;;12.60;97.50;;;;;;5062005;28;20207;-86
2022/03/29 09:25:47;;;;;;;15.02;7.90;;;12.40;96.70;;;;;;5067660;28;20215;-84
2022/03/29 09:28:15;;;;;;;21.27;9.20;;;12.20;98.80;;;;;;5061811;28;20208;-87
2022/03/29 09:30:45;;;;;;;15.65;8.35;;;12.30;97.70;;;;;;5075330;28;20229;-85
2022/03/29 09:33:13;;;;;;;11.80;7.35;;;12.30;98.40;;;;;;5072346;28;20211;-85
2022/03/29 09:36:02;;;;;;;16.85;6.88;;;12.50;96.00;;;;;;5066924;28;20654;-86
2022/03/29 09:38:31;;;;;;;16.05;6.10;;;12.60;95.70;;;;;;5064058;28;20223;-85
2022/03/29 09:40:59;;;;;;;14.63;7.55;;;12.80;95.10;;;;;;5055709;28;20294;-87
2022/03/29 09:43:28;;;;;;;21.55;7.68;;;13.20;95.30;;;;;;5064839;28;20204;-87
2022/03/29 09:45:58;;;;;;;19.92;7.18;;;13.70;94.90;;;;;;5063692;28;20210;-86
2022/03/29 09:48:34;;;;;;;13.88;6.32;;;14.40;92.30;;;;;;5069623;28;20231;-86
2022/03/29 09:51:21;;;;;;;13.57;6.50;;;14.40;92.30;;;;;;5071957;28;20199;-84
2022/03/29 09:53:51;;;;;;;20.10;7.47;;;14.70;91.00;;;;;;5076619;28;20208;-85
2022/03/29 09:56:24;;;;;;;20.88;7.75;;;14.70;91.30;;;;;;5065968;28;20211;-84
2022/03/29 09:59:04;;;;;;;18.48;6.50;;;14.20;90.40;;;;;;5068153;28;20218;-84
2022/03/29 10:01:34;;;;;;;16.50;6.60;;;13.90;89.80;;;;;;5086459;28;20213;-84
2022/03/29 10:04:02;;;;;;;17.63;6.05;;;14.10;90.90;;;;;;5074289;28;20191;-83
2022/03/29 10:06:32;;;;;;;16.38;6.88;;;15.10;90.40;;;;;;5076243;28;20197;-82
2022/03/29 10:11:47;;;;;;;10.95;4.88;;;16.50;84.20;;;;;;5105911;28;20208;-84
2022/03/29 10:14:15;;;;;;;19.70;6.53;;;16.60;83.40;;;;;;5118036;28;20222;-82
2022/03/29 10:16:54;;;;;;;16.50;6.15;;;16.50;83.40;;;;;;5135632;27;20190;-84
2022/03/29 10:19:22;;;;;;;11.88;5.97;;;16.20;83.00;;;;;;5121122;28;20214;-82
2022/03/29 10:21:55;;;;;;;13.25;5.80;;;16.10;82.70;;;;;;5118990;28;20223;-82
2022/03/29 10:24:23;;;;;;;12.83;6.07;;;16.70;81.90;;;;;;5115764;28;20237;-82
2022/03/29 10:26:52;;;;;;;23.10;6.33;;;17.10;81.10;;;;;;5115800;28;20455;-83
2022/03/29 10:29:20;;;;;;;19.27;6.53;;;16.90;81.00;;;;;;5106358;28;20573;-81
2022/03/29 10:31:52;;;;;;;15.55;6.63;;;17.00;80.70;;;;;;5105447;28;20479;-82
2022/03/29 10:34:21;;;;;;;14.32;5.60;;;16.30;80.10;;;;;;5110244;28;20220;-84
2022/03/29 10:37:21;;;;;;;20.63;6.93;;;16.00;81.90;;;;;;5117973;28;20211;-83
2022/03/29 10:39:54;;;;;;;27.77;8.43;;;15.60;82.70;;;;;;5099669;28;20271;-83
2022/03/29 10:42:30;;;;;;;19.25;6.10;;;15.20;83.30;;;;;;5105426;28;20236;-82
2022/03/29 10:45:11;;;;;;;17.13;6.30;;;14.60;84.80;;;;;;5115796;28;20273;-82
2022/03/29 10:47:42;;;;;;;21.17;7.07;;;14.70;85.50;;;;;;5105597;28;20201;-84
2022/03/29 10:50:11;;;;;;;12.85;6.80;;;14.70;85.30;;;;;;5101150;28;20226;-81
2022/03/29 10:52:41;;;;;;;11.77;6.00;;;14.60;86.00;;;;;;5120620;28;20636;-83
2022/03/29 10:55:18;;;;;;;14.30;6.63;;;14.60;86.10;;;;;;5127414;28;20246;-81
2022/03/29 10:58:10;;;;;;;12.88;5.32;;;14.20;86.40;;;;;;5123341;27;20714;-82
2022/03/29 11:00:38;;;;;;;23.25;7.47;;;14.00;89.50;;;;;;5104647;28;20230;-81
2022/03/29 11:03:12;;;;;;;18.83;8.80;;;14.10;88.20;;;;;;5106588;28;20216;-82
2022/03/29 11:06:04;;;;;;;17.67;7.50;;;14.00;87.30;;;;;;5111394;28;20201;-82
2022/03/29 11:08:34;;;;;;;16.15;6.70;;;14.20;87.30;;;;;;5120279;28;20675;-82
2022/03/29 11:11:01;;;;;;;20.95;9.02;;;14.40;88.10;;;;;;5124246;28;20205;-83
2022/03/29 11:13:29;;;;;;;15.35;7.32;;;15.00;86.30;;;;;;5120368;28;20239;-79
2022/03/29 11:16:00;;;;;;;16.40;5.55;;;15.30;85.00;;;;;;5120587;27;20194;-82
2022/03/29 11:18:45;;;;;;;17.27;7.88;;;15.50;83.50;;;;;;5121881;27;20198;-79
2022/03/29 11:21:32;;;;;;;20.92;7.30;;;15.80;83.90;;;;;;5115728;27;20201;-81
2022/03/29 11:24:03;;;;;;;19.00;7.57;;;15.70;83.50;;;;;;5121285;28;20233;-82
2022/03/29 11:26:31;;;;;;;12.90;6.38;;;15.50;83.80;;;;;;5106079;28;20646;-83
2022/03/29 11:28:59;;;;;;;17.83;7.00;;;15.20;84.10;;;;;;5106616;28;20268;-83
2022/03/29 11:31:35;;;;;;;17.48;8.27;;;14.80;83.60;;;;;;5112610;28;20265;-82
2022/03/29 11:34:04;;;;;;;17.33;9.02;;;14.80;85.00;;;;;;5096454;28;20227;-82
2022/03/29 11:36:35;;;;;;;21.27;8.63;;;14.80;84.90;;;;;;5120207;27;20233;-81
2022/03/29 11:39:08;;;;;;;16.13;6.60;;;14.40;85.30;;;;;;5126563;27;20285;-81
2022/03/29 11:41:35;;;;;;;18.60;8.48;;;14.20;87.10;;;;;;5137505;27;20185;-83
2022/03/29 11:44:35;;;;;;;16.67;8.25;;;14.00;86.70;;;;;;5125485;28;20200;-81
2022/03/29 11:47:02;;;;;;;17.88;7.55;;;14.00;87.70;;;;;;5117280;28;20234;-81
2022/03/29 11:49:38;;;;;;;22.10;8.82;;;14.00;88.00;;;;;;5117388;28;20202;-82
2022/03/29 11:52:11;;;;;;;15.02;8.15;;;14.20;88.80;;;;;;5118427;28;20186;-82
2022/03/29 11:54:44;;;;;;;15.38;7.68;;;14.40;87.30;;;;;;5117995;28;20222;-83
2022/03/29 11:57:23;;;;;;;22.73;9.75;;;14.50;88.50;;;;;;5120008;28;20216;-84
2022/03/29 11:59:51;;;;;;;16.50;7.50;;;14.40;86.60;;;;;;5120559;27;20229;-84
2022/03/29 12:02:22;;;;;;;31.45;16.55;;;14.10;86.70;;;;;;5130624;27;20195;-84
2022/03/29 12:04:49;;;;;;;20.77;12.18;;;13.90;87.40;;;;;;5128360;27;20202;-83
2022/03/29 12:07:17;;;;;;;21.98;12.55;;;13.80;89.10;;;;;;5129922;27;20209;-83
2022/03/29 12:09:49;;;;;;;19.60;10.13;;;13.70;88.40;;;;;;5126532;27;20224;-83
2022/03/29 12:12:20;;;;;;;23.33;10.95;;;13.60;89.30;;;;;;5137623;27;20177;-82
2022/03/29 12:14:47;;;;;;;15.82;8.63;;;13.50;88.70;;;;;;5116913;28;20247;-83
2022/03/29 12:17:14;;;;;;;28.13;8.98;;;13.30;89.90;;;;;;5116351;28;20205;-82
2022/03/29 12:19:47;;;;;;;23.92;9.52;;;13.40;89.70;;;;;;5131616;27;20251;-82
2022/03/29 12:22:14;;;;;;;12.57;8.20;;;13.40;89.40;;;;;;5133213;27;20178;-84
2022/03/29 12:24:43;;;;;;;22.48;9.55;;;13.30;90.30;;;;;;5136109;28;20247;-82
2022/03/29 12:27:18;;;;;;;25.85;9.40;;;13.10;90.20;;;;;;5118186;28;20227;-80
2022/03/29 12:29:48;;;;;;;13.65;8.10;;;13.10;90.60;;;;;;5113076;28;20222;-84
2022/03/29 12:32:16;;;;;;;17.65;7.93;;;13.10;90.30;;;;;;5116513;28;20196;-81
2022/03/29 12:34:44;;;;;;;22.92;8.77;;;13.00;90.30;;;;;;5119267;28;20209;-81
2022/03/29 12:37:15;;;;;;;18.48;8.70;;;12.80;90.30;;;;;;5110783;28;20291;-83
2022/03/29 12:39:45;;;;;;;17.38;8.20;;;12.80;91.00;;;;;;5111258;28;20280;-82
2022/03/29 12:42:16;;;;;;;15.40;8.45;;;12.60;91.00;;;;;;5123363;27;20189;-82
2022/03/29 12:44:46;;;;;;;19.83;10.05;;;12.70;90.90;;;;;;5128644;28;20193;-83
2022/03/29 12:47:14;;;;;;;17.55;10.60;;;12.70;90.80;;;;;;5110901;28;20274;-82
2022/03/29 12:49:42;;;;;;;20.98;8.55;;;12.90;90.60;;;;;;5126512;28;20208;-82
2022/03/29 12:52:11;;;;;;;14.18;8.10;;;13.00;90.80;;;;;;5118039;28;20204;-83
2022/03/29 12:54:40;;;;;;;16.63;7.10;;;13.10;90.40;;;;;;5110886;28;20225;-82
2022/03/29 12:57:10;;;;;;;18.92;8.25;;;13.20;90.40;;;;;;5111862;28;20206;-82
2022/03/29 12:59:40;;;;;;;16.75;7.38;;;13.10;90.50;;;;;;5098448;28;20230;-81
2022/03/29 13:02:19;;;;;;;23.50;9.50;;;13.10;90.20;;;;;;5110015;28;20210;-82
2022/03/29 13:04:49;;;;;;;21.08;9.68;;;13.30;90.10;;;;;;5110793;28;20241;-83
2022/03/29 13:07:44;;;;;;;25.75;10.27;;;13.30;89.60;;;;;;5128049;28;20269;-83
2022/03/29 13:10:14;;;;;;;18.48;8.32;;;13.40;90.00;;;;;;5095240;28;20312;-83
2022/03/29 13:12:53;;;;;;;19.65;9.85;;;13.50;90.00;;;;;;5110211;28;20219;-83
2022/03/29 13:15:48;;;;;;;22.45;9.52;;;13.40;89.90;;;;;;5105460;28;20228;-83
2022/03/29 13:18:22;;;;;;;16.65;7.78;;;13.20;90.00;;;;;;5098893;28;20261;-84
2022/03/29 13:20:50;;;;;;;16.88;8.70;;;13.20;90.10;;;;;;5109132;28;20209;-82
2022/03/29 13:23:29;;;;;;;17.55;8.80;;;13.20;90.10;;;;;;5128839;28;20291;-82
2022/03/29 13:25:56;;;;;;;21.00;11.13;;;13.20;90.10;;;;;;5121254;28;20208;-82
2022/03/29 13:28:24;;;;;;;14.32;9.10;;;13.20;90.20;;;;;;5113775;28;20220;-82
2022/03/29 13:30:52;;;;;;;21.88;9.60;;;13.20;90.10;;;;;;5128786;28;20261;-83
2022/03/29 13:33:20;;;;;;;27.88;15.95;;;13.20;90.40;;;;;;5130482;28;20245;-83
2022/03/29 13:35:50;;;;;;;19.73;10.38;;;13.10;90.50;;;;;;5120297;27;20206;-82
2022/03/29 13:38:18;;;;;;;16.52;10.20;;;12.90;90.50;;;;;;5111339;28;20218;-82
2022/03/29 13:40:45;;;;;;;15.25;9.52;;;12.80;90.80;;;;;;5123804;27;20198;-83
2022/03/29 13:43:12;;;;;;;25.63;11.32;;;12.80;90.90;;;;;;5117185;28;20217;-83
2022/03/29 13:45:40;;;;;;;17.80;10.85;;;12.70;91.00;;;;;;5134047;27;20216;-84
2022/03/29 13:48:09;;;;;;;17.17;10.93;;;12.70;91.10;;;;;;5118355;28;20232;-81
2022/03/29 13:50:36;;;;;;;20.30;10.27;;;12.70;91.10;;;;;;5114509;28;20227;-80
2022/03/29 13:53:04;;;;;;;15.93;9.70;;;12.70;91.20;;;;;;5113134;28;20240;-83
2022/03/29 13:55:34;;;;;;;17.42;8.43;;;12.80;91.00;;;;;;5113839;28;20242;-83
2022/03/29 13:58:04;;;;;;;17.33;10.35;;;12.80;91.10;;;;;;5113564;28;20205;-82
2022/03/29 14:00:32;;;;;;;15.27;10.75;;;12.80;90.90;;;;;;5125667;28;20430;-80
2022/03/29 14:02:59;;;;;;;18.10;9.02;;;12.70;90.60;;;;;;5119172;28;20208;-81
2022/03/29 14:05:28;;;;;;;26.60;9.07;;;12.70;90.90;;;;;;5115309;28;20204;-82
2022/03/29 14:07:55;;;;;;;21.02;8.98;;;12.80;91.20;;;;;;5109351;28;20208;-80
2022/03/29 14:10:23;;;;;;;19.40;10.35;;;12.90;90.80;;;;;;5106365;28;20247;-84
2022/03/29 14:12:50;;;;;;;14.38;8.20;;;13.10;90.50;;;;;;5108220;28;20262;-84
2022/03/29 14:15:18;;;;;;;13.30;8.40;;;13.10;90.50;;;;;;5117179;28;20244;-84
2022/03/29 14:17:46;;;;;;;15.75;9.05;;;13.20;90.30;;;;;;5119954;28;20199;-84
2022/03/29 14:20:14;;;;;;;19.98;9.32;;;13.00;90.20;;;;;;5126701;28;20229;-84
2022/03/29 14:22:44;;;;;;;18.45;12.50;;;12.70;90.70;;;;;;5111433;28;20203;-82
2022/03/29 14:25:13;;;;;;;18.63;8.30;;;12.60;91.20;;;;;;5116283;28;20197;-81
2022/03/29 14:27:42;;;;;;;13.75;7.65;;;12.80;91.30;;;;;;5128361;28;20575;-81
2022/03/29 14:30:13;;;;;;;15.00;7.82;;;12.80;91.50;;;;;;5124851;27;20227;-81
2022/03/29 14:32:41;;;;;;;12.63;7.05;;;12.80;91.20;;;;;;5115840;28;20585;-82
2022/03/29 14:35:10;;;;;;;14.80;7.20;;;12.90;90.80;;;;;;5119115;28;20248;-83
2022/03/29 14:37:38;;;;;;;15.93;9.20;;;12.80;90.80;;;;;;5129523;28;20209;-85
2022/03/29 14:40:10;;;;;;;11.15;6.72;;;12.80;91.20;;;;;;5125031;28;20219;-83
2022/03/29 14:42:37;;;;;;;12.10;7.10;;;12.80;90.90;;;;;;5119718;28;20219;-84
2022/03/29 14:45:06;;;;;;;16.40;6.85;;;12.80;91.10;;;;;;5110144;28;20275;-80
2022/03/29 14:47:34;;;;;;;18.38;7.72;;;12.50;91.70;;;;;;5129330;27;20213;-83
2022/03/29 14:50:02;;;;;;;14.25;6.97;;;12.50;91.40;;;;;;5116728;28;20231;-83
2022/03/29 14:52:29;;;;;;;14.43;6.97;;;12.50;91.30;;;;;;5107126;28;20238;-83
2022/03/29 14:54:56;;;;;;;13.75;6.57;;;12.40;91.30;;;;;;5107661;28;20239;-83
2022/03/29 14:57:24;;;;;;;15.75;7.15;;;12.40;91.40;;;;;;5128521;28;20688;-83
2022/03/29 14:59:52;;;;;;;12.85;6.28;;;12.40;91.30;;;;;;5117424;28;20255;-83
2022/03/29 15:02:20;;;;;;;14.55;5.90;;;12.40;91.30;;;;;;5108628;28;20235;-84
2022/03/29 15:04:47;;;;;;;17.55;6.75;;;12.30;91.50;;;;;;5124226;28;20217;-82
2022/03/29 15:07:16;;;;;;;14.68;5.45;;;12.40;91.40;;;;;;5110022;28;20222;-81
2022/03/29 15:09:43;;;;;;;13.18;5.00;;;12.40;91.40;;;;;;5125327;28;20215;-81